createdAt,value
2019-05-22T00:01:56.258Z,15.37
2019-05-22T00:04:47.849Z,12.57
2019-05-22T00:07:16.935Z,15.20
2019-05-22T00:09:49.797Z,14.70
2019-05-22T00:12:20.682Z,14.17
2019-05-22T00:14:52.649Z,14.68
2019-05-22T00:17:25.450Z,13.30
2019-05-22T00:19:54.766Z,16.30
2019-05-22T00:22:26.385Z,15.03
2019-05-22T00:24:56.838Z,13.15
2019-05-22T00:27:28.354Z,11.38
2019-05-22T00:29:57.423Z,12.28
2019-05-22T00:32:27.058Z,13.48
2019-05-22T00:34:56.065Z,14.03
2019-05-22T00:37:25.698Z,17.87
2019-05-22T00:39:56.874Z,13.10
2019-05-22T00:42:27.136Z,16.35
2019-05-22T00:44:57.869Z,13.90
2019-05-22T00:47:28.808Z,15.30
2019-05-22T00:49:59.048Z,13.43
2019-05-22T00:52:52.230Z,12.40
2019-05-22T00:55:39.286Z,11.20
2019-05-22T00:58:20.101Z,13.28
2019-05-22T01:00:52.074Z,14.05
2019-05-22T01:03:22.571Z,12.37
2019-05-22T01:05:51.271Z,12.33
2019-05-22T01:08:21.801Z,15.20
2019-05-22T01:10:53.006Z,12.73
2019-05-22T01:13:22.406Z,15.90
2019-05-22T01:15:52.138Z,10.20
2019-05-22T01:18:21.715Z,7.97
2019-05-22T01:20:51.746Z,13.73
2019-05-22T01:23:21.274Z,10.30
2019-05-22T01:25:51.853Z,10.70
2019-05-22T01:28:21.597Z,11.07
2019-05-22T01:31:08.168Z,13.03
2019-05-22T01:33:44.558Z,12.93
2019-05-22T01:36:38.375Z,11.33
2019-05-22T01:39:16.497Z,10.82
2019-05-22T01:41:48.010Z,15.47
2019-05-22T01:44:18.713Z,12.50
2019-05-22T01:46:48.589Z,15.25
2019-05-22T01:49:18.464Z,12.67
2019-05-22T01:51:47.079Z,11.55
2019-05-22T01:54:16.038Z,13.32
2019-05-22T01:56:45.943Z,16.32
2019-05-22T01:59:15.240Z,13.05
2019-05-22T02:01:45.158Z,14.78
2019-05-22T02:04:14.880Z,15.40
2019-05-22T02:06:45.418Z,14.30
2019-05-22T02:09:26.994Z,19.00
2019-05-22T02:11:57.665Z,13.75
2019-05-22T02:14:27.346Z,13.40
2019-05-22T02:16:57.914Z,8.40
2019-05-22T02:19:28.197Z,14.90
2019-05-22T02:21:58.825Z,12.90
2019-05-22T02:24:29.087Z,14.10
2019-05-22T02:26:58.567Z,16.23
2019-05-22T02:29:29.116Z,12.93
2019-05-22T02:31:58.606Z,13.45
2019-05-22T02:34:28.377Z,13.15
2019-05-22T02:36:57.744Z,13.68
2019-05-22T02:39:38.024Z,14.60
2019-05-22T02:42:12.329Z,12.05
2019-05-22T02:44:41.578Z,12.43
2019-05-22T02:47:18.833Z,13.97
2019-05-22T02:49:42.121Z,11.57
2019-05-22T02:52:11.356Z,13.07
2019-05-22T02:54:40.618Z,10.48
2019-05-22T02:57:11.771Z,16.17
2019-05-22T02:59:43.117Z,13.27
2019-05-22T03:02:13.959Z,12.10
2019-05-22T03:04:54.677Z,16.10
2019-05-22T03:07:23.647Z,10.00
2019-05-22T03:09:52.887Z,14.97
2019-05-22T03:12:22.230Z,14.10
2019-05-22T03:14:51.651Z,9.37
2019-05-22T03:17:28.526Z,12.50
2019-05-22T03:19:59.820Z,10.10
2019-05-22T03:22:29.091Z,10.17
2019-05-22T03:24:59.969Z,11.07
2019-05-22T03:27:39.745Z,12.50
2019-05-22T03:30:11.251Z,11.60
2019-05-22T03:32:43.560Z,9.08
2019-05-22T03:35:12.580Z,12.47
2019-05-22T03:37:41.560Z,10.60
2019-05-22T03:40:12.634Z,11.33
2019-05-22T03:42:42.636Z,11.90
2019-05-22T03:45:11.322Z,15.13
2019-05-22T03:47:42.254Z,11.33
2019-05-22T03:50:11.747Z,9.98
2019-05-22T03:52:40.324Z,13.53
2019-05-22T03:55:11.007Z,13.33
2019-05-22T03:57:39.997Z,11.67
2019-05-22T04:00:10.949Z,17.03
2019-05-22T04:02:39.652Z,14.35
2019-05-22T04:05:08.850Z,11.53
2019-05-22T04:07:39.181Z,16.10
2019-05-22T04:10:10.233Z,13.63
2019-05-22T04:12:39.953Z,17.43
2019-05-22T04:15:10.277Z,15.70
2019-05-22T04:17:39.570Z,13.95
2019-05-22T04:20:09.082Z,14.37
2019-05-22T04:22:37.705Z,17.12
2019-05-22T04:25:06.720Z,14.78
2019-05-22T04:27:36.886Z,16.97
2019-05-22T04:30:07.939Z,15.20
2019-05-22T04:32:39.129Z,14.35
2019-05-22T04:35:10.891Z,15.88
2019-05-22T04:37:40.497Z,14.15
2019-05-22T04:40:45.014Z,14.03
2019-05-22T04:43:13.691Z,14.75
2019-05-22T04:45:42.570Z,12.28
2019-05-22T04:48:11.519Z,15.83
2019-05-22T04:50:40.614Z,15.13
2019-05-22T04:53:09.602Z,19.80
2019-05-22T04:55:38.219Z,17.23
2019-05-22T04:58:10.507Z,16.40
2019-05-22T05:00:39.787Z,16.82
2019-05-22T05:03:10.781Z,15.05
2019-05-22T05:05:41.641Z,16.42
2019-05-22T05:08:12.142Z,20.63
2019-05-22T05:10:43.074Z,20.00
2019-05-22T05:13:11.770Z,18.10
2019-05-22T05:15:40.390Z,22.10
2019-05-22T05:18:09.268Z,20.23
2019-05-22T05:20:38.589Z,15.93
2019-05-22T05:23:07.255Z,18.57
2019-05-22T05:25:36.457Z,17.70
2019-05-22T05:28:07.381Z,20.27
2019-05-22T05:30:36.002Z,4.60
2019-05-22T05:33:05.343Z,6.37
2019-05-22T05:35:35.164Z,6.12
2019-05-22T05:38:05.318Z,6.45
2019-05-22T05:40:37.916Z,5.47
2019-05-22T05:43:07.365Z,4.90
2019-05-22T05:45:36.369Z,5.60
2019-05-22T05:48:06.588Z,5.40
2019-05-22T05:50:40.191Z,5.80
2019-05-22T05:53:08.863Z,6.37
2019-05-22T05:55:42.942Z,6.25
2019-05-22T05:58:23.544Z,7.42
2019-05-22T06:00:54.812Z,6.55
2019-05-22T06:03:30.930Z,9.17
2019-05-22T06:06:01.015Z,8.43
2019-05-22T06:08:30.314Z,7.87
2019-05-22T06:11:18.026Z,9.10
2019-05-22T06:13:47.212Z,18.03
2019-05-22T06:16:35.359Z,21.37
2019-05-22T06:19:04.360Z,16.05
2019-05-22T06:21:33.827Z,18.27
2019-05-22T06:24:20.154Z,18.20
2019-05-22T06:26:58.972Z,16.77
2019-05-22T06:29:41.975Z,17.47
2019-05-22T06:32:42.898Z,20.25
2019-05-22T06:35:12.625Z,17.03
2019-05-22T06:37:45.310Z,23.35
2019-05-22T06:40:14.715Z,22.10
2019-05-22T06:42:44.948Z,18.13
2019-05-22T06:45:13.857Z,20.77
2019-05-22T06:47:42.615Z,17.07
2019-05-22T06:50:11.530Z,21.12
2019-05-22T06:52:40.930Z,18.07
2019-05-22T06:55:09.622Z,21.83
2019-05-22T06:57:38.412Z,18.37
2019-05-22T07:00:16.681Z,20.17
2019-05-22T07:02:45.364Z,15.87
2019-05-22T07:05:14.136Z,20.90
2019-05-22T07:07:43.076Z,19.77
2019-05-22T07:10:15.067Z,20.80
2019-05-22T07:12:45.457Z,19.83
2019-05-22T07:15:50.229Z,20.57
2019-05-22T07:18:20.642Z,17.37
2019-05-22T07:20:50.332Z,19.73
2019-05-22T07:23:22.743Z,18.52
2019-05-22T07:25:52.227Z,18.83
2019-05-22T07:28:22.517Z,20.17
2019-05-22T07:30:51.451Z,20.50
2019-05-22T07:33:20.892Z,18.53
2019-05-22T07:36:08.399Z,20.43
2019-05-22T07:38:21.240Z,19.67
2019-05-22T07:40:51.440Z,19.77
2019-05-22T07:43:21.627Z,18.50
2019-05-22T07:45:51.647Z,20.93
2019-05-22T07:48:20.914Z,19.13
2019-05-22T07:50:50.140Z,19.73
2019-05-22T07:53:19.070Z,17.92
2019-05-22T07:55:49.191Z,22.53
2019-05-22T07:58:18.512Z,17.07
2019-05-22T08:00:50.053Z,18.70
2019-05-22T08:03:18.797Z,21.63
2019-05-22T08:05:49.834Z,15.40
2019-05-22T08:08:20.841Z,20.85
2019-05-22T08:10:50.449Z,17.12
2019-05-22T08:13:19.063Z,21.35
2019-05-22T08:15:48.245Z,21.30
2019-05-22T08:18:17.155Z,21.43
2019-05-22T08:20:45.774Z,16.15
2019-05-22T08:23:15.353Z,23.07
2019-05-22T08:25:44.142Z,17.77
2019-05-22T08:28:13.514Z,16.17
2019-05-22T08:30:42.113Z,25.27
2019-05-22T08:33:12.487Z,16.25
2019-05-22T08:35:41.142Z,18.13
2019-05-22T08:38:09.970Z,17.23
2019-05-22T08:40:40.536Z,20.73
2019-05-22T08:43:09.245Z,19.37
2019-05-22T08:45:38.256Z,19.32
2019-05-22T08:48:07.151Z,11.60
2019-05-22T08:50:37.466Z,19.60
2019-05-22T08:53:07.869Z,19.33
2019-05-22T08:55:37.113Z,19.10
2019-05-22T08:58:06.097Z,18.80
2019-05-22T09:00:35.562Z,15.10
2019-05-22T09:03:04.769Z,18.57
2019-05-22T09:05:33.644Z,13.22
2019-05-22T09:08:03.363Z,13.83
2019-05-22T09:10:32.754Z,11.83
2019-05-22T09:13:01.329Z,16.53
2019-05-22T09:15:30.190Z,17.13
2019-05-22T09:17:58.883Z,13.72
2019-05-22T09:20:27.772Z,17.77
2019-05-22T09:22:57.654Z,16.45
2019-05-22T09:25:26.757Z,18.37
2019-05-22T09:27:56.033Z,15.63
2019-05-22T09:30:24.735Z,17.42
2019-05-22T09:32:54.029Z,17.77
2019-05-22T09:35:23.354Z,14.75
2019-05-22T09:37:52.126Z,17.40
2019-05-22T09:40:21.457Z,15.58
2019-05-22T09:42:50.114Z,15.03
2019-05-22T09:45:20.146Z,14.67
2019-05-22T09:47:49.047Z,10.20
2019-05-22T09:50:18.527Z,8.00
2019-05-22T09:52:57.525Z,14.07
2019-05-22T09:55:19.406Z,15.30
2019-05-22T09:57:48.504Z,16.50
2019-05-22T10:00:17.769Z,17.85
2019-05-22T10:02:46.617Z,11.88
2019-05-22T10:05:16.005Z,12.57
2019-05-22T10:08:00.063Z,17.80
2019-05-22T10:10:16.768Z,1.20
2019-05-22T10:12:45.952Z,13.95
2019-05-22T10:15:14.819Z,18.63
2019-05-22T10:17:45.449Z,20.57
2019-05-22T10:20:14.085Z,17.25
2019-05-22T10:22:43.146Z,16.55
2019-05-22T10:25:16.251Z,11.05
2019-05-22T10:27:41.999Z,19.65
2019-05-22T10:30:11.974Z,14.00
2019-05-22T10:32:41.050Z,18.50
2019-05-22T10:35:11.079Z,17.07
2019-05-22T10:37:40.891Z,19.17
2019-05-22T10:40:10.395Z,19.67
2019-05-22T10:42:38.918Z,17.95
2019-05-22T10:45:07.545Z,19.00
2019-05-22T10:47:36.384Z,24.00
2019-05-22T10:50:04.993Z,24.77
2019-05-22T10:52:33.863Z,17.97
2019-05-22T10:55:02.947Z,18.50
2019-05-22T10:57:31.998Z,26.83
2019-05-22T11:00:00.632Z,23.12
2019-05-22T11:02:29.590Z,24.80
2019-05-22T11:04:58.373Z,23.33
2019-05-22T11:07:28.713Z,18.70
2019-05-22T11:09:57.811Z,16.93
2019-05-22T11:12:26.916Z,19.03
2019-05-22T11:14:56.218Z,18.15
2019-05-22T11:17:24.813Z,13.13
2019-05-22T11:19:54.153Z,14.45
2019-05-22T11:22:23.755Z,11.90
2019-05-22T11:24:52.641Z,19.77
2019-05-22T11:27:22.599Z,14.95
2019-05-22T11:29:51.938Z,17.17
2019-05-22T11:32:20.715Z,18.15
2019-05-22T11:34:49.413Z,21.20
2019-05-22T11:37:19.515Z,19.37
2019-05-22T11:39:48.781Z,18.97
2019-05-22T11:42:17.459Z,23.63
2019-05-22T11:44:46.386Z,17.80
2019-05-22T11:47:15.011Z,19.90
2019-05-22T11:49:43.662Z,6.63
2019-05-22T11:52:13.373Z,11.53
2019-05-22T11:54:42.514Z,20.57
2019-05-22T11:57:11.118Z,18.57
2019-05-22T11:59:40.303Z,19.03
2019-05-22T12:02:10.551Z,15.28
2019-05-22T12:04:47.736Z,5.47
2019-05-22T12:07:11.015Z,12.75
2019-05-22T12:09:40.034Z,13.83
2019-05-22T12:12:09.792Z,14.73
2019-05-22T12:14:39.142Z,11.13
2019-05-22T12:17:09.110Z,8.67
2019-05-22T12:19:37.890Z,13.98
2019-05-22T12:22:07.107Z,18.53
2019-05-22T12:24:37.229Z,15.80
2019-05-22T12:27:06.713Z,15.37
2019-05-22T12:29:36.774Z,12.23
2019-05-22T12:32:06.851Z,15.20
2019-05-22T12:34:35.565Z,15.23
2019-05-22T12:37:05.454Z,7.70
2019-05-22T12:39:34.414Z,13.40
2019-05-22T12:42:03.167Z,4.93
2019-05-22T12:44:31.940Z,8.57
2019-05-22T12:47:00.638Z,11.57
2019-05-22T12:49:30.306Z,2.63
2019-05-22T12:52:00.262Z,8.07
2019-05-22T12:54:45.303Z,13.43
2019-05-22T12:56:59.686Z,12.10
2019-05-22T12:59:28.866Z,1.70
2019-05-22T13:01:58.043Z,13.17
2019-05-22T13:04:27.287Z,10.37
2019-05-22T13:06:57.180Z,10.68
2019-05-22T13:09:25.947Z,8.27
2019-05-22T13:11:55.236Z,10.82
2019-05-22T13:14:23.865Z,11.53
2019-05-22T13:16:52.549Z,8.08
2019-05-22T13:19:21.646Z,10.60
2019-05-22T13:21:52.277Z,11.07
2019-05-22T13:24:22.891Z,11.93
2019-05-22T13:26:52.300Z,11.10
2019-05-22T13:29:21.275Z,7.00
2019-05-22T13:31:50.886Z,6.53
2019-05-22T13:34:20.107Z,6.85
2019-05-22T13:36:50.187Z,7.58
2019-05-22T13:39:19.248Z,2.37
2019-05-22T13:41:48.036Z,2.83
2019-05-22T13:44:17.007Z,2.80
2019-05-22T13:46:45.702Z,4.67
2019-05-22T13:49:14.683Z,2.33
2019-05-22T13:51:43.297Z,3.33
2019-05-22T13:54:13.641Z,2.53
2019-05-22T13:56:43.141Z,1.47
2019-05-22T13:59:12.294Z,2.00
2019-05-22T14:01:41.045Z,3.77
2019-05-22T14:04:09.679Z,1.57
2019-05-22T14:06:38.254Z,1.73
2019-05-22T14:09:09.664Z,2.50
2019-05-22T14:11:38.526Z,2.57
2019-05-22T14:14:07.489Z,4.63
2019-05-22T14:16:48.029Z,5.78
2019-05-22T14:19:06.485Z,2.70
2019-05-22T14:21:35.183Z,3.67
2019-05-22T14:24:03.913Z,4.63
2019-05-22T14:26:33.545Z,4.73
2019-05-22T14:29:02.230Z,4.62
2019-05-22T14:31:30.818Z,3.85
2019-05-22T14:33:59.414Z,4.27
2019-05-22T14:36:28.338Z,4.70
2019-05-22T14:38:57.117Z,5.83
2019-05-22T14:41:25.618Z,6.23
2019-05-22T14:43:54.222Z,7.50
2019-05-22T14:49:05.691Z,5.97
2019-05-22T14:51:34.574Z,7.57
2019-05-22T14:54:03.649Z,3.77
2019-05-22T14:56:32.534Z,5.00
2019-05-22T14:59:01.359Z,6.58
2019-05-22T15:01:30.113Z,5.43
2019-05-22T15:03:59.103Z,5.37
2019-05-22T15:06:27.782Z,6.37
2019-05-22T15:08:56.630Z,7.00
2019-05-22T15:11:25.425Z,3.57
2019-05-22T15:13:54.241Z,4.70
2019-05-22T15:16:22.859Z,3.63
2019-05-22T15:18:52.937Z,2.83
2019-05-22T15:21:21.819Z,4.80
2019-05-22T15:23:50.869Z,4.22
2019-05-22T15:26:19.418Z,4.87
2019-05-22T15:28:48.145Z,3.77
2019-05-22T15:31:16.765Z,1.87
2019-05-22T15:33:45.435Z,2.03
2019-05-22T15:36:16.848Z,3.85
2019-05-22T15:38:47.279Z,3.55
2019-05-22T15:41:16.140Z,1.85
2019-05-22T15:43:52.107Z,1.17
2019-05-22T15:46:18.652Z,1.03
2019-05-22T15:48:47.326Z,3.55
2019-05-22T15:51:18.174Z,1.90
2019-05-22T15:53:46.867Z,1.67
2019-05-22T15:56:15.810Z,2.57
2019-05-22T15:58:46.861Z,3.10
2019-05-22T16:01:16.961Z,1.93
2019-05-22T16:03:46.730Z,4.83
2019-05-22T16:06:15.922Z,4.00
2019-05-22T16:08:44.898Z,3.45
2019-05-22T16:11:15.174Z,1.98
2019-05-22T16:13:44.987Z,1.95
2019-05-22T16:16:14.902Z,4.80
2019-05-22T16:18:44.902Z,2.17
2019-05-22T16:21:13.887Z,4.23
2019-05-22T16:23:42.652Z,2.67
2019-05-22T16:26:12.619Z,3.52
2019-05-22T16:28:43.512Z,4.10
2019-05-22T16:31:12.384Z,2.30
2019-05-22T16:33:41.556Z,2.33
2019-05-22T16:36:10.758Z,2.50
2019-05-22T16:38:39.880Z,1.25
2019-05-22T16:41:08.637Z,2.10
2019-05-22T16:43:49.016Z,2.83
2019-05-22T16:46:09.358Z,2.02
2019-05-22T16:48:38.530Z,1.90
2019-05-22T16:51:07.414Z,1.20
2019-05-22T16:53:37.262Z,1.70
2019-05-22T16:56:07.801Z,3.92
2019-05-22T16:58:36.677Z,4.97
2019-05-22T17:01:06.230Z,4.83
2019-05-22T17:03:35.542Z,1.87
2019-05-22T17:06:04.561Z,3.58
2019-05-22T17:08:33.218Z,3.43
2019-05-22T17:11:04.622Z,3.30
2019-05-22T17:13:33.530Z,2.47
2019-05-22T17:16:02.710Z,3.70
2019-05-22T17:18:46.483Z,4.00
2019-05-22T17:21:04.102Z,4.08
2019-05-22T17:23:32.771Z,3.97
2019-05-22T17:26:01.351Z,2.15
2019-05-22T17:28:30.168Z,3.80
2019-05-22T17:30:59.236Z,3.67
2019-05-22T17:33:27.934Z,3.08
2019-05-22T17:35:56.838Z,4.33
2019-05-22T17:38:26.284Z,6.30
2019-05-22T17:40:55.202Z,3.83
2019-05-22T17:43:25.609Z,3.50
2019-05-22T17:45:55.324Z,2.17
2019-05-22T17:48:24.699Z,2.40
2019-05-22T17:50:53.739Z,4.67
2019-05-22T17:53:23.098Z,2.10
2019-05-22T17:55:51.630Z,2.97
2019-05-22T17:58:24.546Z,4.47
2019-05-22T18:00:51.489Z,2.67
2019-05-22T18:03:20.380Z,3.27
2019-05-22T18:05:48.903Z,2.10
2019-05-22T18:08:17.801Z,3.90
2019-05-22T18:10:48.514Z,1.90
2019-05-22T18:13:17.619Z,2.02
2019-05-22T18:15:46.404Z,1.32
2019-05-22T18:18:14.994Z,2.37
2019-05-22T18:20:44.404Z,1.00
2019-05-22T18:23:13.074Z,1.90
2019-05-22T18:25:41.909Z,1.47
2019-05-22T18:28:11.644Z,1.10
2019-05-22T18:30:42.439Z,4.00
2019-05-22T18:33:11.526Z,1.70
2019-05-22T18:35:40.185Z,1.57
2019-05-22T18:38:09.384Z,3.92
2019-05-22T18:40:38.080Z,1.10
2019-05-22T18:43:07.194Z,3.25
2019-05-22T18:45:36.242Z,1.80
2019-05-22T18:48:06.274Z,4.37
2019-05-22T18:50:35.423Z,1.50
2019-05-22T18:53:04.403Z,1.72
2019-05-22T18:55:33.054Z,2.10
2019-05-22T18:58:01.813Z,1.00
2019-05-22T19:00:32.212Z,2.70
2019-05-22T19:03:00.955Z,1.60
2019-05-22T19:05:31.490Z,1.37
2019-05-22T19:08:00.284Z,3.97
2019-05-22T19:10:29.740Z,2.42
2019-05-22T19:13:03.608Z,2.22
2019-05-22T19:15:29.119Z,1.90
2019-05-22T19:17:57.805Z,4.10
2019-05-22T19:20:26.612Z,3.65
2019-05-22T19:23:01.025Z,2.98
2019-05-22T19:25:26.375Z,1.77
2019-05-22T19:27:55.079Z,2.05
2019-05-22T19:30:23.976Z,2.95
2019-05-22T19:32:53.125Z,5.58
2019-05-22T19:35:21.748Z,2.67
2019-05-22T19:37:51.087Z,3.03
2019-05-22T19:40:19.974Z,8.10
2019-05-22T19:42:48.661Z,1.80
2019-05-22T19:45:18.781Z,3.85
2019-05-22T19:47:51.147Z,2.70
2019-05-22T19:50:23.855Z,2.27
2019-05-22T19:52:53.015Z,2.53
2019-05-22T19:55:22.489Z,2.10
2019-05-22T19:57:51.960Z,3.40
2019-05-22T20:00:22.872Z,2.12
2019-05-22T20:02:51.583Z,4.05
2019-05-22T20:05:20.710Z,4.20
2019-05-22T20:07:49.407Z,2.83
2019-05-22T20:10:18.448Z,2.90
2019-05-22T20:12:47.312Z,1.87
2019-05-22T20:15:16.883Z,2.93
2019-05-22T20:17:45.838Z,1.40
2019-05-22T20:20:15.803Z,5.55
2019-05-22T20:22:45.627Z,9.33
2019-05-22T20:25:15.311Z,3.10
2019-05-22T20:27:44.261Z,2.83
2019-05-22T20:30:15.570Z,2.60
2019-05-22T20:32:44.915Z,3.10
2019-05-22T20:35:13.838Z,1.80
2019-05-22T20:37:43.727Z,1.87
2019-05-22T20:40:12.567Z,2.80
2019-05-22T20:42:41.829Z,1.53
2019-05-22T20:45:10.609Z,5.60
2019-05-22T20:47:39.902Z,2.92
2019-05-22T20:50:11.199Z,1.92
2019-05-22T20:52:40.836Z,1.90
2019-05-22T20:55:11.557Z,1.70
2019-05-22T20:57:42.414Z,4.70
2019-05-22T21:00:13.989Z,2.55
2019-05-22T21:02:44.860Z,2.73
2019-05-22T21:05:15.309Z,1.40
2019-05-22T21:07:48.793Z,1.87
2019-05-22T21:10:22.539Z,3.00
2019-05-22T21:12:51.846Z,2.07
2019-05-22T21:15:21.422Z,2.57
2019-05-22T21:17:50.206Z,2.27
2019-05-22T21:20:20.961Z,1.98
2019-05-22T21:22:53.020Z,3.15
2019-05-22T21:25:21.683Z,2.22
2019-05-22T21:27:50.483Z,2.90
2019-05-22T21:30:19.562Z,1.33
2019-05-22T21:32:49.034Z,1.82
2019-05-22T21:35:18.342Z,1.98
2019-05-22T21:37:47.487Z,1.70
2019-05-22T21:40:17.845Z,1.80
2019-05-22T21:42:46.621Z,2.83
2019-05-22T21:45:15.991Z,2.67
2019-05-22T21:47:44.642Z,5.17
2019-05-22T21:50:13.550Z,5.00
2019-05-22T21:52:43.134Z,6.03
2019-05-22T21:55:13.008Z,3.53
2019-05-22T21:57:41.820Z,2.63
2019-05-22T22:00:14.318Z,3.47
2019-05-22T22:02:46.619Z,2.57
2019-05-22T22:05:15.653Z,3.95
2019-05-22T22:07:44.386Z,4.42
2019-05-22T22:10:13.323Z,2.70
2019-05-22T22:12:42.797Z,3.58
2019-05-22T22:15:12.180Z,3.83
2019-05-22T22:17:42.048Z,2.77
2019-05-22T22:20:12.718Z,2.47
2019-05-22T22:22:41.583Z,4.15
2019-05-22T22:25:10.955Z,3.80
2019-05-22T22:27:39.729Z,5.17
2019-05-22T22:30:11.514Z,2.63
2019-05-22T22:32:40.693Z,5.63
2019-05-22T22:35:10.703Z,5.15
2019-05-22T22:37:39.349Z,3.77
2019-05-22T22:40:09.717Z,5.97
2019-05-22T22:42:39.975Z,5.77
2019-05-22T22:45:16.233Z,7.57
2019-05-22T22:47:46.012Z,4.63
2019-05-22T22:50:16.486Z,2.52
2019-05-22T22:52:45.694Z,3.20
2019-05-22T22:55:17.352Z,3.52
2019-05-22T22:57:47.233Z,5.10
2019-05-22T23:00:18.393Z,3.80
2019-05-22T23:02:47.978Z,4.10
2019-05-22T23:05:17.707Z,3.52
2019-05-22T23:07:47.545Z,4.23
2019-05-22T23:10:17.555Z,4.90
2019-05-22T23:12:46.828Z,5.30
2019-05-22T23:15:18.216Z,2.90
2019-05-22T23:17:46.403Z,3.93
2019-05-22T23:20:14.209Z,3.62
2019-05-22T23:22:43.417Z,4.73
2019-05-22T23:25:12.822Z,5.55
2019-05-22T23:27:41.402Z,3.45
2019-05-22T23:30:10.725Z,4.65
2019-05-22T23:32:41.025Z,3.50
2019-05-22T23:35:10.087Z,3.67
2019-05-22T23:37:40.995Z,2.83
2019-05-22T23:40:10.762Z,5.05
2019-05-22T23:42:42.160Z,3.27
2019-05-22T23:45:12.770Z,2.90
2019-05-22T23:47:50.942Z,3.73
2019-05-22T23:50:20.605Z,3.12
2019-05-22T23:52:49.202Z,4.33
2019-05-22T23:55:17.809Z,4.33
2019-05-22T23:57:47.977Z,4.90
